Time;durP1;ratioP1;P1;durP2;ratioP2;P2;SDS_P1;SDS_P2;PMS_P1;PMS_P2;Temp;Humidity;BMP_temperature;BMP_pressure;BME280_temperature;BME280_humidity;BME280_pressure;Samples;Min_cycle;Max_cycle;Signal;HPM_P1;HPM_P2
2023/04/08 00:00:43;;;;;;;24.07;10.30;;;;;;;7.51;100.00;102105.03;5014940;28;20030;-83
2023/04/08 00:03:08;;;;;;;24.80;11.20;;;;;;;7.53;100.00;102111.97;4980252;28;20410;-83
2023/04/08 00:05:34;;;;;;;25.23;9.97;;;;;;;7.55;100.00;102112.66;4996487;28;20038;-83
2023/04/08 00:07:59;;;;;;;28.00;10.23;;;;;;;7.58;100.00;102105.25;4980766;28;20097;-83
2023/04/08 00:10:25;;;;;;;27.23;10.60;;;;;;;7.61;100.00;102113.00;4980761;28;20061;-83
2023/04/08 00:12:51;;;;;;;20.20;9.63;;;;;;;7.62;100.00;102114.69;4963981;28;20042;-83
2023/04/08 00:15:16;;;;;;;25.23;10.53;;;;;;;7.63;100.00;102111.84;4980436;28;20026;-83
2023/04/08 00:17:41;;;;;;;24.38;10.73;;;;;;;7.66;100.00;102110.66;5012898;28;20029;-83
2023/04/08 00:20:07;;;;;;;26.17;10.60;;;;;;;7.66;100.00;102105.25;5014129;28;20036;-83
2023/04/08 00:22:33;;;;;;;23.53;10.53;;;;;;;7.66;100.00;102103.41;4996311;28;20069;-84
2023/04/08 00:24:58;;;;;;;24.73;10.23;;;;;;;7.63;100.00;102105.56;5014334;28;20091;-83
2023/04/08 00:27:26;;;;;;;22.73;11.40;;;;;;;7.64;100.00;102104.56;4996229;28;20044;-83
2023/04/08 00:29:52;;;;;;;28.10;12.43;;;;;;;7.64;100.00;102115.38;4980602;28;20026;-83
2023/04/08 00:32:17;;;;;;;25.47;11.73;;;;;;;7.64;100.00;102115.38;4996329;28;20049;-83
2023/04/08 00:34:42;;;;;;;22.80;11.57;;;;;;;7.63;100.00;102110.97;4996083;28;20025;-83
2023/04/08 00:37:08;;;;;;;26.43;11.97;;;;;;;7.63;100.00;102106.44;4979939;28;20030;-83
2023/04/08 00:39:34;;;;;;;27.90;12.15;;;;;;;7.64;100.00;102112.69;4995949;28;20069;-83
2023/04/08 00:42:00;;;;;;;28.10;12.77;;;;;;;7.63;100.00;102110.97;4996286;28;20038;-83
2023/04/08 00:44:26;;;;;;;27.65;11.75;;;;;;;7.63;100.00;102105.56;4995993;28;20029;-83
2023/04/08 00:46:52;;;;;;;28.02;13.35;;;;;;;7.63;100.00;102111.84;4996118;28;20471;-83
2023/04/08 00:49:17;;;;;;;28.93;12.70;;;;;;;7.64;100.00;102115.38;4980596;28;20169;-83
2023/04/08 00:51:43;;;;;;;34.78;13.57;;;;;;;7.65;100.00;102119.78;4995642;28;20402;-83
2023/04/08 00:54:08;;;;;;;26.43;13.83;;;;;;;7.66;100.00;102107.94;5013763;28;20049;-83
2023/04/08 00:56:34;;;;;;;36.17;13.80;;;;;;;7.66;100.00;102114.22;4995951;28;20096;-83
2023/04/08 00:59:00;;;;;;;31.33;13.48;;;;;;;7.68;100.00;102122.16;4996092;28;20037;-83
2023/04/08 01:01:48;;;;;;;35.83;13.32;;;;;;;7.71;100.00;102124.53;4980645;28;20068;-84
2023/04/08 01:04:56;;;;;;;34.20;13.35;;;;;;;7.68;100.00;102120.28;5013681;28;20030;-83
2023/04/08 01:07:31;;;;;;;30.30;14.07;;;;;;;7.68;100.00;102122.16;4987282;28;20061;-83
2023/04/08 01:10:19;;;;;;;36.38;14.07;;;;;;;7.67;100.00;102120.44;5013267;28;20034;-84
2023/04/08 01:12:55;;;;;;;35.25;14.27;;;;;;;7.70;100.00;102120.13;5013111;28;20042;-83
2023/04/08 01:15:23;;;;;;;34.67;15.82;;;;;;;7.71;100.00;102124.53;4996043;28;20057;-83
2023/04/08 01:17:53;;;;;;;37.90;14.45;;;;;;;7.70;100.00;102122.81;4995728;28;20180;-83
2023/04/08 01:20:20;;;;;;;32.97;14.95;;;;;;;7.70;100.00;102123.66;5013495;28;20030;-83
2023/04/08 01:23:09;;;;;;;40.60;15.63;;;;;;;7.72;100.00;102124.34;5013468;28;20056;-83
2023/04/08 01:25:37;;;;;;;29.88;15.18;;;;;;;7.76;100.00;102126.72;5012412;28;20037;-84
2023/04/08 01:28:09;;;;;;;41.38;16.55;;;;;;;7.74;100.00;102121.47;4995900;28;20045;-83
2023/04/08 01:30:38;;;;;;;40.08;17.23;;;;;;;7.74;100.00;102126.88;5012460;28;20038;-84
2023/04/08 01:33:04;;;;;;;38.30;16.13;;;;;;;7.70;100.00;102129.06;4995961;28;20034;-84
2023/04/08 01:35:31;;;;;;;36.83;16.13;;;;;;;7.69;100.00;102129.22;5013693;28;20030;-84
2023/04/08 01:37:58;;;;;;;48.55;17.13;;;;;;;7.71;100.00;102135.31;5014206;28;20029;-84
2023/04/08 01:40:23;;;;;;;37.38;16.67;;;;;;;7.70;100.00;102133.63;4999515;28;20080;-83
2023/04/08 01:42:54;;;;;;;40.35;16.45;;;;;;;7.72;100.00;102134.28;4999581;28;20038;-84
2023/04/08 01:45:21;;;;;;;33.72;16.98;;;;;;;7.71;100.00;102138.03;4999623;28;20080;-83
2023/04/08 01:47:48;;;;;;;41.13;17.27;;;;;;;7.70;100.00;102131.75;5016835;28;20030;-83
2023/04/08 01:50:15;;;;;;;39.50;17.47;;;;;;;7.70;100.00;102130.94;4982811;28;20508;-83
2023/04/08 01:52:43;;;;;;;48.97;16.95;;;;;;;7.70;100.00;102133.63;5016260;28;20078;-83
2023/04/08 01:55:08;;;;;;;47.53;17.95;;;;;;;7.69;100.00;102129.22;5016748;28;20359;-83
2023/04/08 01:57:36;;;;;;;41.33;17.10;;;;;;;7.69;100.00;102137.31;4983147;28;20045;-83
2023/04/08 02:00:08;;;;;;;45.28;17.35;;;;;;;7.67;100.00;102136.66;4999275;28;20030;-84
2023/04/08 02:02:36;;;;;;;42.08;16.95;;;;;;;7.67;100.00;102131.25;4999125;28;20038;-84
2023/04/08 02:05:02;;;;;;;46.63;18.35;;;;;;;7.67;100.00;102129.38;5016554;28;20025;-83
2023/04/08 02:07:28;;;;;;;44.70;17.73;;;;;;;7.64;100.00;102135.13;4999713;28;20364;-83
2023/04/08 02:09:55;;;;;;;41.63;17.73;;;;;;;7.59;100.00;102131.22;4982682;28;20471;-83
2023/04/08 02:12:20;;;;;;;46.40;18.27;;;;;;;7.50;100.00;102133.91;4998876;28;20046;-84
2023/04/08 02:14:49;;;;;;;50.88;18.95;;;;;;;7.44;100.00;102134.56;4999093;28;20125;-83
2023/04/08 02:17:24;;;;;;;47.50;18.65;;;;;;;7.43;100.00;102134.75;4966465;28;20490;-83
2023/04/08 02:20:17;;;;;;;43.30;18.38;;;;;;;7.38;100.00;102141.47;4998908;28;20486;-83
2023/04/08 02:23:07;;;;;;;46.00;18.13;;;;;;;7.35;100.00;102139.09;4956912;28;20092;-83
2023/04/08 02:25:36;;;;;;;48.92;18.70;;;;;;;7.34;100.00;102133.84;5016159;28;20084;-83
2023/04/08 02:28:04;;;;;;;44.97;18.10;;;;;;;7.32;100.00;102142.13;5015168;28;20033;-83
2023/04/08 02:30:31;;;;;;;44.83;19.17;;;;;;;7.32;100.00;102138.56;4982554;28;20033;-83
2023/04/08 02:32:57;;;;;;;48.72;18.65;;;;;;;7.31;100.00;102142.28;4998584;28;20034;-83
2023/04/08 02:35:23;;;;;;;55.25;18.17;;;;;;;7.34;100.00;102141.97;4981829;28;20029;-83
2023/04/08 02:37:49;;;;;;;44.90;19.80;;;;;;;7.32;100.00;102142.13;4998268;28;20030;-83
2023/04/08 02:40:31;;;;;;;47.25;19.23;;;;;;;7.36;100.00;102146.16;4982844;28;20077;-83
2023/04/08 02:42:58;;;;;;;42.50;19.05;;;;;;;7.40;100.00;102143.13;5015813;28;20030;-83
2023/04/08 02:45:30;;;;;;;48.67;20.13;;;;;;;7.40;100.00;102149.41;4998514;28;20030;-83
2023/04/08 02:47:56;;;;;;;45.30;19.85;;;;;;;7.43;100.00;102153.63;4998429;28;20037;-83
2023/04/08 02:50:22;;;;;;;56.33;21.23;;;;;;;7.37;100.00;102145.16;4981184;28;20100;-83
2023/04/08 02:52:47;;;;;;;47.77;20.53;;;;;;;7.33;100.00;102156.44;4981594;28;20394;-83
2023/04/08 02:55:12;;;;;;;53.17;20.73;;;;;;;7.35;100.00;102151.72;4981917;28;20042;-83
2023/04/08 02:57:40;;;;;;;47.65;20.02;;;;;;;7.39;100.00;102155.81;5015275;28;20040;-83
2023/04/08 03:00:08;;;;;;;52.67;21.15;;;;;;;7.43;100.00;102156.34;4997913;28;20068;-83
2023/04/08 03:02:34;;;;;;;51.37;20.87;;;;;;;7.45;100.00;102154.31;4982053;28;20034;-83
2023/04/08 03:05:00;;;;;;;50.10;21.73;;;;;;;7.48;100.00;102162.91;4997860;28;20371;-83
2023/04/08 03:07:25;;;;;;;58.25;21.58;;;;;;;7.49;100.00;102158.38;5015349;28;20034;-83
2023/04/08 03:09:53;;;;;;;53.57;21.90;;;;;;;7.49;100.00;102161.91;4997785;28;20116;-83
2023/04/08 03:12:19;;;;;;;50.20;21.13;;;;;;;7.50;100.00;102160.91;4997992;28;20045;-83
2023/04/08 03:14:45;;;;;;;51.27;22.33;;;;;;;7.51;100.00;102154.53;5014872;28;20463;-83
2023/04/08 03:17:10;;;;;;;55.83;21.97;;;;;;;7.53;100.00;102166.00;4981413;28;20026;-83
2023/04/08 03:19:35;;;;;;;63.80;22.55;;;;;;;7.53;100.00;102165.16;4981294;28;20113;-83
2023/04/08 03:22:01;;;;;;;54.10;21.80;;;;;;;7.54;100.00;102162.28;4981114;28;20029;-83
2023/04/08 03:24:26;;;;;;;52.77;22.33;;;;;;;7.56;100.00;102159.44;4997506;28;20441;-83
2023/04/08 03:26:52;;;;;;;57.30;22.13;;;;;;;7.53;100.00;102157.06;4997437;28;20026;-83
2023/04/08 03:29:17;;;;;;;56.90;20.87;;;;;;;7.48;100.00;102162.09;4997727;28;20430;-83
2023/04/08 03:31:43;;;;;;;47.92;20.30;;;;;;;7.47;100.00;102158.53;4981231;28;20034;-83
2023/04/08 03:34:08;;;;;;;46.80;20.57;;;;;;;7.47;100.00;102158.53;5014981;28;20455;-83
2023/04/08 03:36:33;;;;;;;46.43;21.47;;;;;;;7.43;100.00;102151.78;5015161;28;20474;-83
2023/04/08 03:38:59;;;;;;;55.63;20.87;;;;;;;7.47;100.00;102163.09;4981798;28;20033;-83
2023/04/08 03:41:24;;;;;;;57.40;22.38;;;;;;;7.44;100.00;102164.28;4997278;28;20429;-83
2023/04/08 03:43:50;;;;;;;50.63;20.92;;;;;;;7.44;100.00;102163.41;4997163;28;20042;-83
2023/04/08 03:46:15;;;;;;;52.57;22.33;;;;;;;7.37;100.00;102161.38;4980653;28;20044;-83
2023/04/08 03:48:41;;;;;;;57.17;22.40;;;;;;;7.31;100.00;102162.03;4981148;28;20493;-83
2023/04/08 03:51:06;;;;;;;54.57;22.07;;;;;;;7.26;100.00;102164.34;4980701;28;20054;-83
2023/04/08 03:53:31;;;;;;;54.38;21.48;;;;;;;7.19;100.00;102168.72;4980622;28;20289;-83
2023/04/08 03:55:57;;;;;;;61.43;22.93;;;;;;;7.14;100.00;102171.88;4980845;28;20593;-83
2023/04/08 03:58:22;;;;;;;62.73;21.80;;;;;;;7.12;100.00;102175.75;4997731;28;20034;-82
2023/04/08 04:00:48;;;;;;;61.27;23.50;;;;;;;7.12;100.00;102176.59;5012936;28;20201;-83
2023/04/08 04:03:13;;;;;;;57.90;22.60;;;;;;;7.14;100.00;102169.16;4996750;28;20042;-83
2023/04/08 04:05:39;;;;;;;55.77;22.17;;;;;;;7.18;100.00;102167.00;5014120;28;20161;-83
2023/04/08 04:08:05;;;;;;;66.50;23.05;;;;;;;7.18;100.00;102178.66;4996410;28;20053;-83
2023/04/08 04:10:31;;;;;;;68.20;23.20;;;;;;;7.19;100.00;102172.25;4980455;28;20501;-83
2023/04/08 04:12:56;;;;;;;69.18;23.80;;;;;;;7.18;100.00;102169.72;4980431;28;20034;-82
2023/04/08 04:15:21;;;;;;;64.43;23.40;;;;;;;7.17;100.00;102178.81;4996335;28;20137;-83
2023/04/08 04:17:49;;;;;;;64.90;24.97;;;;;;;7.17;100.00;102168.00;4980894;28;20092;-82
2023/04/08 04:20:15;;;;;;;71.10;24.58;;;;;;;7.18;100.00;102173.25;5012898;28;20377;-82
2023/04/08 04:22:40;;;;;;;74.00;26.20;;;;;;;7.19;100.00;102183.06;4980269;28;20037;-83
2023/04/08 04:25:07;;;;;;;78.20;23.73;;;;;;;7.23;100.00;102183.56;5014191;28;20060;-83
2023/04/08 04:27:32;;;;;;;75.05;24.00;;;;;;;7.25;100.00;102186.97;4980513;28;20120;-83
2023/04/08 04:30:00;;;;;;;71.25;23.65;;;;;;;7.29;100.00;102184.78;4980833;28;20083;-83
2023/04/08 04:32:25;;;;;;;73.90;24.67;;;;;;;7.31;100.00;102190.88;5013931;28;20034;-83
2023/04/08 04:34:51;;;;;;;73.03;25.02;;;;;;;7.32;100.00;102200.66;4996273;28;20037;-83
2023/04/08 04:37:17;;;;;;;85.63;26.10;;;;;;;7.31;100.00;102190.88;4996298;28;20386;-83
2023/04/08 04:39:42;;;;;;;75.85;26.83;;;;;;;7.29;100.00;102195.56;4980360;28;20482;-83
2023/04/08 04:42:08;;;;;;;83.65;25.88;;;;;;;7.30;100.00;102199.97;4980419;28;20040;-83
2023/04/08 04:44:33;;;;;;;82.83;25.23;;;;;;;7.33;100.00;102205.06;5013921;28;20066;-83
2023/04/08 04:46:59;;;;;;;78.50;26.00;;;;;;;7.32;100.00;102208.75;4996995;28;20044;-83
2023/04/08 04:49:24;;;;;;;83.27;26.93;;;;;;;7.34;100.00;102199.50;4963906;28;20062;-83
2023/04/08 04:51:50;;;;;;;92.00;28.05;;;;;;;7.39;100.00;102199.00;4989639;28;20088;-83
2023/04/08 04:54:18;;;;;;;72.13;26.37;;;;;;;7.41;100.00;102207.81;4979939;28;20042;-83
2023/04/08 04:56:44;;;;;;;85.20;26.05;;;;;;;7.43;100.00;102210.34;4996325;28;20030;-83
2023/04/08 04:59:09;;;;;;;83.00;26.10;;;;;;;7.45;100.00;102209.16;4996207;28;20056;-83
2023/04/08 05:01:35;;;;;;;85.40;27.73;;;;;;;7.48;100.00;102216.09;4979984;28;20034;-83
2023/04/08 05:04:00;;;;;;;88.72;26.83;;;;;;;7.46;100.00;102210.84;4995857;28;20046;-83
2023/04/08 05:06:28;;;;;;;92.63;26.63;;;;;;;7.45;100.00;102222.66;4979894;28;20040;-84
2023/04/08 05:08:54;;;;;;;91.63;26.98;;;;;;;7.47;100.00;102215.25;4980763;28;20280;-83
2023/04/08 05:11:20;;;;;;;71.57;23.73;;;;;;;7.47;100.00;102217.09;4996004;28;20463;-85
2023/04/08 05:13:46;;;;;;;71.10;24.30;;;;;;;7.49;100.00;102221.34;5015802;28;20018;-84
2023/04/08 05:16:11;;;;;;;66.23;22.47;;;;;;;7.51;100.00;102223.88;5032514;28;20041;-84
2023/04/08 05:18:37;;;;;;;68.40;22.93;;;;;;;7.53;100.00;102224.56;5000112;28;20470;-84
2023/04/08 05:21:02;;;;;;;61.47;20.97;;;;;;;7.50;100.00;102228.44;5000122;28;20034;-84
2023/04/08 05:23:27;;;;;;;58.95;21.25;;;;;;;7.50;100.00;102225.75;4967884;28;20461;-84
2023/04/08 05:25:53;;;;;;;56.47;20.70;;;;;;;7.49;100.00;102240.25;4999508;28;20149;-84
2023/04/08 05:28:19;;;;;;;54.63;20.67;;;;;;;7.50;100.00;102238.38;4983860;28;20061;-85
2023/04/08 05:30:49;;;;;;;52.33;20.38;;;;;;;7.49;100.00;102236.69;4999775;28;20064;-85
2023/04/08 05:33:25;;;;;;;54.55;20.67;;;;;;;7.51;100.00;102240.94;4983098;28;20041;-85
2023/04/08 05:35:52;;;;;;;49.47;18.60;;;;;;;7.51;100.00;102235.53;4986368;28;20473;-85
2023/04/08 05:38:17;;;;;;;43.88;19.20;;;;;;;7.52;100.00;102231.81;5015465;28;20028;-85
2023/04/08 05:40:43;;;;;;;52.30;19.20;;;;;;;7.56;100.00;102245.84;5015678;28;20033;-85
2023/04/08 05:43:08;;;;;;;42.90;19.33;;;;;;;7.58;100.00;102235.72;4983123;28;20026;-85
2023/04/08 05:45:34;;;;;;;46.03;18.27;;;;;;;7.62;100.00;102245.22;5016583;28;20440;-84
2023/04/08 05:47:59;;;;;;;51.38;19.52;;;;;;;7.63;100.00;102238.81;5015438;28;20096;-85
2023/04/08 05:50:25;;;;;;;48.37;18.53;;;;;;;7.69;100.00;102245.38;4983268;28;20041;-85
2023/04/08 05:52:50;;;;;;;48.37;19.30;;;;;;;7.72;100.00;102247.75;4980110;28;20055;-85
2023/04/08 05:55:16;;;;;;;42.73;17.97;;;;;;;7.77;100.00;102248.13;4979885;28;20069;-86
2023/04/08 05:57:41;;;;;;;46.13;18.35;;;;;;;7.85;100.00;102253.59;4979598;28;20280;-85
2023/04/08 06:00:08;;;;;;;47.73;19.47;;;;;;;7.92;100.00;102255.63;4997314;28;20057;-84
2023/04/08 06:02:35;;;;;;;47.67;19.38;;;;;;;7.96;100.00;102260.53;4964073;28;20125;-85
2023/04/08 06:05:00;;;;;;;43.93;18.47;;;;;;;8.00;100.00;102263.75;4964023;28;20039;-85
2023/04/08 06:07:25;;;;;;;49.65;19.55;;;;;;;8.05;100.00;102266.81;4980253;28;20463;-84
2023/04/08 06:09:51;;;;;;;43.37;18.43;;;;;;;8.08;100.00;102258.38;4979196;28;20068;-85
2023/04/08 06:12:16;;;;;;;49.43;18.60;;;;;;;8.15;100.00;102258.56;4996907;28;20031;-85
2023/04/08 06:14:42;;;;;;;42.27;18.83;;;;;;;8.23;100.00;102266.72;4947186;28;20475;-84
2023/04/08 06:17:07;;;;;;;44.63;19.27;;;;;;;8.26;100.00;102269.91;4979046;28;20117;-85
2023/04/08 06:19:33;;;;;;;42.13;17.85;;;;;;;8.31;100.00;102265.88;4979491;28;20315;-85
2023/04/08 06:21:59;;;;;;;44.45;18.95;;;;;;;8.37;100.00;102278.72;4979147;28;20117;-85
2023/04/08 06:24:28;;;;;;;43.30;19.40;;;;;;;8.46;100.00;102271.50;4946375;28;20439;-85
2023/04/08 06:26:54;;;;;;;40.47;18.35;;;;;;;8.54;100.00;102276.94;4979132;28;20022;-85
2023/04/08 06:29:20;;;;;;;41.30;18.93;;;;;;;8.61;100.00;102280.69;4979168;28;20088;-85
2023/04/08 06:31:46;;;;;;;38.75;17.42;;;;;;;8.65;100.00;102290.16;4979266;28;20323;-85
2023/04/08 06:34:12;;;;;;;32.53;16.25;;;;;;;8.72;100.00;102291.16;4995241;28;20027;-84
2023/04/08 06:36:37;;;;;;;28.80;14.53;;;;;;;8.81;100.00;102292.00;4979633;28;20034;-85
2023/04/08 06:39:03;;;;;;;23.77;12.57;;;;;;;8.88;100.00;102290.31;4979038;28;20109;-85
2023/04/08 06:41:29;;;;;;;24.50;13.00;;;;;;;8.98;100.00;102301.00;4978758;28;20026;-85
2023/04/08 06:43:54;;;;;;;24.77;12.55;;;;;;;9.07;100.00;102302.69;4979085;28;20038;-85
2023/04/08 06:46:20;;;;;;;27.63;13.07;;;;;;;9.18;100.00;102296.06;4978426;28;20137;-85
2023/04/08 06:48:46;;;;;;;22.45;12.32;;;;;;;9.32;100.00;102305.38;4962903;28;20073;-85
2023/04/08 06:51:11;;;;;;;24.83;12.80;;;;;;;9.35;100.00;102305.03;4995909;28;20516;-85
2023/04/08 06:53:36;;;;;;;24.40;12.97;;;;;;;9.43;100.00;102299.59;4946465;28;20034;-84
2023/04/08 06:56:02;;;;;;;27.00;12.97;;;;;;;9.55;100.00;102301.94;4978623;28;20576;-85
2023/04/08 06:58:28;;;;;;;26.40;13.18;;;;;;;9.60;100.00;102311.25;4978468;28;20069;-85
2023/04/08 07:00:57;;;;;;;24.97;13.23;;;;;;;9.69;100.00;102309.34;4978694;28;20072;-85
2023/04/08 07:03:22;;;;;;;24.85;13.02;;;;;;;9.76;100.00;102313.06;4994460;28;20109;-85
2023/04/08 07:05:48;;;;;;;25.27;13.00;;;;;;;9.84;100.00;102318.44;4978637;28;20197;-85
2023/04/08 07:08:13;;;;;;;27.23;13.57;;;;;;;9.88;100.00;102320.84;4978324;28;20266;-85
2023/04/08 07:10:39;;;;;;;23.70;12.63;;;;;;;9.92;100.00;102320.31;4946448;28;20038;-84
2023/04/08 07:13:04;;;;;;;24.13;13.23;;;;;;;10.00;100.00;102325.69;4978118;28;20129;-87
2023/04/08 07:15:29;;;;;;;25.73;13.40;;;;;;;10.03;100.00;102318.22;4978081;28;20041;-84
2023/04/08 07:17:58;;;;;;;25.23;13.10;;;;;;;10.11;100.00;102329.03;4945997;28;20328;-83
2023/04/08 07:20:24;;;;;;;21.45;12.35;;;;;;;10.21;100.00;102328.81;4995201;28;20022;-83
2023/04/08 07:22:50;;;;;;;22.57;13.43;;;;;;;10.23;100.00;102333.06;4978266;28;20030;-83
2023/04/08 07:25:18;;;;;;;22.33;13.18;;;;;;;10.29;100.00;102337.78;4994060;28;20049;-84
2023/04/08 07:27:44;;;;;;;22.67;12.65;;;;;;;10.34;100.00;102337.28;4962609;28;20030;-84
2023/04/08 07:30:10;;;;;;;23.07;12.97;;;;;;;10.42;100.00;102345.34;4961791;28;20386;-83
2023/04/08 07:32:35;;;;;;;21.20;12.48;;;;;;;10.44;100.00;102346.03;4995196;28;20467;-84
2023/04/08 07:35:04;;;;;;;22.23;13.23;;;;;;;10.44;100.00;102345.19;4977508;28;20038;-84
2023/04/08 07:37:30;;;;;;;19.88;11.70;;;;;;;10.49;100.00;102345.50;4994641;28;20048;-84
2023/04/08 07:39:55;;;;;;;22.17;12.57;;;;;;;10.49;100.00;102346.31;4961566;28;20474;-84
2023/04/08 07:42:21;;;;;;;21.53;13.03;;;;;;;10.51;100.00;102346.16;4961560;28;20030;-84
2023/04/08 07:44:47;;;;;;;20.97;12.77;;;;;;;10.55;99.10;102346.66;4961496;28;20436;-84
2023/04/08 07:47:12;;;;;;;22.50;13.15;;;;;;;10.55;99.87;102354.81;4977587;28;20030;-84
2023/04/08 07:49:38;;;;;;;21.60;12.43;;;;;;;10.56;99.50;102351.06;4977582;28;20026;-84
2023/04/08 07:52:04;;;;;;;20.55;12.85;;;;;;;10.46;99.06;102343.97;4989339;28;20545;-84
2023/04/08 07:54:30;;;;;;;29.13;14.97;;;;;;;10.47;100.00;102353.81;4980605;28;20041;-84
2023/04/08 07:56:56;;;;;;;25.52;14.43;;;;;;;10.61;100.00;102354.91;4980524;28;20129;-84
2023/04/08 07:59:21;;;;;;;29.67;17.20;;;;;;;10.82;100.00;102357.00;4996510;28;20121;-83
2023/04/08 08:01:47;;;;;;;25.95;14.60;;;;;;;10.97;99.71;102367.06;4996293;28;20045;-84
2023/04/08 08:04:12;;;;;;;21.00;13.30;;;;;;;11.01;97.29;102362.97;4980839;28;20117;-84
2023/04/08 08:06:38;;;;;;;21.53;12.63;;;;;;;11.03;97.55;102372.63;5014568;28;20041;-84
2023/04/08 08:09:04;;;;;;;19.48;12.02;;;;;;;11.19;97.05;102365.38;4964332;28;20029;-84
2023/04/08 08:11:29;;;;;;;20.37;13.33;;;;;;;11.24;95.38;102374.66;4980324;28;20029;-84
2023/04/08 08:13:55;;;;;;;21.63;13.32;;;;;;;11.38;95.21;102372.16;4996443;28;20030;-84
2023/04/08 08:16:21;;;;;;;20.83;12.87;;;;;;;11.50;93.90;102375.28;4980453;28;20037;-84
2023/04/08 08:18:46;;;;;;;19.95;12.73;;;;;;;11.47;94.50;102376.53;4964267;28;20033;-84
2023/04/08 08:21:12;;;;;;;19.57;12.07;;;;;;;11.57;94.43;102379.84;4996090;28;20080;-84
2023/04/08 08:23:37;;;;;;;22.33;13.90;;;;;;;11.63;94.00;102375.50;4964466;28;20041;-84
2023/04/08 08:26:11;;;;;;;21.17;13.80;;;;;;;11.64;93.34;102385.34;4980210;28;20029;-84
2023/04/08 08:28:37;;;;;;;24.15;13.20;;;;;;;11.58;92.94;102386.94;4996216;28;20068;-84
2023/04/08 08:31:04;;;;;;;22.30;13.35;;;;;;;11.61;94.12;102384.91;4979787;28;20034;-84
2023/04/08 08:33:30;;;;;;;21.08;12.95;;;;;;;11.65;92.48;102389.78;4980543;28;20034;-84
2023/04/08 08:35:58;;;;;;;25.27;15.80;;;;;;;11.69;92.35;102382.94;4980115;28;20037;-85
2023/04/08 08:38:24;;;;;;;22.05;13.77;;;;;;;11.79;91.30;102396.25;4996400;28;20568;-84
2023/04/08 08:40:55;;;;;;;20.33;13.30;;;;;;;11.87;91.10;102396.19;4996044;28;20026;-84
2023/04/08 08:43:21;;;;;;;21.33;13.23;;;;;;;12.02;90.43;102398.94;4995994;28;20033;-84
2023/04/08 08:45:46;;;;;;;23.23;13.30;;;;;;;12.06;89.77;102394.81;4980071;28;20033;-84
2023/04/08 08:48:12;;;;;;;21.77;13.20;;;;;;;12.08;90.11;102402.78;4983421;28;20030;-84
2023/04/08 08:50:40;;;;;;;20.70;13.73;;;;;;;12.08;89.33;102391.91;5000086;28;20026;-85
2023/04/08 08:53:08;;;;;;;20.10;13.20;;;;;;;11.94;87.53;102399.00;5000072;28;20045;-84
2023/04/08 08:55:34;;;;;;;19.65;12.82;;;;;;;11.84;88.69;102403.84;5000145;28;20041;-83
2023/04/08 08:58:00;;;;;;;23.43;13.33;;;;;;;11.93;88.52;102405.50;5000016;28;20037;-84
2023/04/08 09:00:39;;;;;;;21.27;13.27;;;;;;;12.21;88.87;102405.69;5017530;28;20041;-84
2023/04/08 09:03:28;;;;;;;20.27;13.70;;;;;;;12.66;88.28;102411.06;5017834;28;20045;-84
2023/04/08 09:05:59;;;;;;;22.40;14.25;;;;;;;13.01;84.57;102410.41;5017791;28;20378;-84
2023/04/08 09:08:25;;;;;;;19.60;12.70;;;;;;;13.30;83.03;102413.03;5000705;28;20030;-84
2023/04/08 09:10:52;;;;;;;20.52;13.60;;;;;;;13.46;82.68;102411.09;5017077;28;20389;-84
2023/04/08 09:13:17;;;;;;;23.33;14.43;;;;;;;13.55;81.26;102415.34;4983844;28;20168;-84
2023/04/08 09:16:03;;;;;;;22.93;14.80;;;;;;;13.71;83.21;102422.41;5000445;28;20124;-84
2023/04/08 09:18:29;;;;;;;25.65;15.82;;;;;;;13.54;81.65;102415.53;4999971;28;20064;-84
2023/04/08 09:20:55;;;;;;;24.87;15.77;;;;;;;13.49;82.22;102417.00;5017212;28;20046;-84
2023/04/08 09:23:20;;;;;;;27.88;16.90;;;;;;;13.34;82.09;102421.66;4967179;28;20037;-84
2023/04/08 09:25:46;;;;;;;26.60;16.50;;;;;;;13.13;82.79;102430.66;4999473;28;20026;-84
2023/04/08 09:28:20;;;;;;;26.77;16.77;;;;;;;12.86;84.53;102427.66;5016717;28;20026;-84
2023/04/08 09:30:46;;;;;;;29.27;16.60;;;;;;;12.51;83.97;102435.59;4967198;28;20056;-84
2023/04/08 09:33:12;;;;;;;27.98;17.20;;;;;;;12.22;85.54;102431.03;4999965;28;20453;-84
2023/04/08 09:35:37;;;;;;;27.17;17.53;;;;;;;12.15;87.51;102433.66;4999859;28;20041;-84
2023/04/08 09:38:03;;;;;;;35.93;18.03;;;;;;;12.17;87.04;102434.31;4983252;28;20033;-84
2023/04/08 09:40:34;;;;;;;26.80;16.70;;;;;;;12.19;88.77;102431.41;4999134;28;20048;-84
2023/04/08 09:43:04;;;;;;;27.00;17.13;;;;;;;12.25;87.63;102433.34;5017353;28;20029;-84
2023/04/08 09:45:33;;;;;;;25.00;16.45;;;;;;;12.31;88.52;102438.03;5016960;28;20084;-84
2023/04/08 09:48:17;;;;;;;24.88;16.67;;;;;;;12.37;86.81;102437.31;5016771;28;20026;-84
2023/04/08 09:50:49;;;;;;;23.80;15.05;;;;;;;12.40;86.41;102436.94;5017228;28;20061;-84
2023/04/08 09:53:33;;;;;;;23.50;14.73;;;;;;;12.56;86.77;102441.34;5032420;28;20046;-84
2023/04/08 09:56:01;;;;;;;22.83;15.55;;;;;;;12.66;86.54;102442.91;5016737;28;20038;-84
2023/04/08 09:58:37;;;;;;;22.90;15.65;;;;;;;12.87;85.09;102439.38;4997793;28;20038;-84
2023/04/08 10:01:06;;;;;;;21.17;14.15;;;;;;;13.23;83.08;102449.41;5031626;28;20045;-84
2023/04/08 10:03:47;;;;;;;22.10;14.52;;;;;;;13.39;82.77;102446.47;5031461;28;20084;-84
2023/04/08 10:06:14;;;;;;;19.90;13.90;;;;;;;13.56;80.37;102447.03;5032520;28;20022;-84
2023/04/08 10:08:40;;;;;;;20.05;14.10;;;;;;;13.82;78.74;102440.13;4998516;28;20500;-84
2023/04/08 10:11:08;;;;;;;18.60;13.82;;;;;;;14.12;77.17;102443.47;5031368;28;20030;-84
2023/04/08 10:13:37;;;;;;;19.80;13.65;;;;;;;14.46;74.94;102447.22;4998783;28;20141;-84
2023/04/08 10:16:23;;;;;;;19.27;14.15;;;;;;;14.78;76.63;102444.03;4998844;28;20044;-84
2023/04/08 10:18:54;;;;;;;19.43;12.97;;;;;;;15.19;72.95;102441.22;5016541;28;20061;-84
2023/04/08 10:21:32;;;;;;;20.38;14.27;;;;;;;15.56;72.83;102438.09;5014543;28;20026;-84
2023/04/08 10:24:00;;;;;;;18.38;14.10;;;;;;;15.60;69.74;102442.94;5030953;28;20088;-84
2023/04/08 10:26:33;;;;;;;17.33;13.15;;;;;;;15.93;70.81;102449.50;5015789;28;20088;-84
2023/04/08 10:29:31;;;;;;;17.52;13.20;;;;;;;16.15;71.90;102441.88;5016037;28;20034;-84
2023/04/08 10:31:57;;;;;;;18.77;14.43;;;;;;;16.16;68.13;102429.84;4966267;28;20133;-84
2023/04/08 10:34:25;;;;;;;18.70;13.27;;;;;;;16.47;65.93;102431.84;4998220;28;20121;-84
2023/04/08 10:36:51;;;;;;;16.23;12.82;;;;;;;16.70;64.21;102425.03;5015015;28;20490;-84
2023/04/08 10:39:17;;;;;;;16.52;13.00;;;;;;;17.13;63.41;102424.38;5016536;28;20026;-84
2023/04/08 10:41:43;;;;;;;17.30;12.57;;;;;;;17.39;62.75;102427.16;4998462;28;20512;-84
2023/04/08 10:44:19;;;;;;;16.92;13.57;;;;;;;17.51;62.75;102433.63;5030641;28;20030;-84
2023/04/08 10:46:50;;;;;;;16.07;13.10;;;;;;;17.63;61.60;102425.50;5030576;28;20038;-84
2023/04/08 10:49:17;;;;;;;17.63;13.50;;;;;;;17.59;60.45;102427.84;4997981;28;20030;-86
2023/04/08 10:51:43;;;;;;;17.42;13.73;;;;;;;17.44;60.70;102433.66;4997878;28;20499;-84
2023/04/08 10:54:16;;;;;;;17.08;13.50;;;;;;;17.44;61.49;102425.44;4981653;28;20057;-84
2023/04/08 10:56:51;;;;;;;19.25;14.90;;;;;;;17.07;61.86;102413.47;4998390;28;20030;-84
2023/04/08 10:59:27;;;;;;;19.07;14.50;;;;;;;16.87;63.41;102419.03;4998125;28;20120;-85
2023/04/08 11:01:52;;;;;;;19.33;14.68;;;;;;;16.73;62.36;102415.53;5015161;28;20026;-84
2023/04/08 11:04:22;;;;;;;19.53;15.20;;;;;;;17.01;63.32;102413.28;4981537;28;20034;-84
2023/04/08 11:06:48;;;;;;;18.17;14.48;;;;;;;17.42;60.64;102411.13;4997814;28;20504;-85
2023/04/08 11:09:15;;;;;;;23.48;15.25;;;;;;;17.71;59.16;102409.56;4982270;28;20046;-85
2023/04/08 11:11:41;;;;;;;21.13;15.80;;;;;;;17.87;59.18;102401.84;4996885;28;20045;-85